Time;durP1;ratioP1;P1;durP2;ratioP2;P2;SDS_P1;SDS_P2;PMS_P1;PMS_P2;Temp;Humidity;BMP_temperature;BMP_pressure;BME280_temperature;BME280_humidity;BME280_pressure;Samples;Min_cycle;Max_cycle;Signal;HPM_P1;HPM_P2
2022/06/24 00:01:13;;;;;;;1.87;1.73;;;;;;;19.97;55.78;100407.06;5060537;28;20221;-72
2022/06/24 00:03:39;;;;;;;3.63;1.77;;;;;;;20.00;55.57;100406.03;5056805;28;20207;-72
2022/06/24 00:06:13;;;;;;;2.13;1.60;;;;;;;20.00;55.27;100401.56;5063722;28;20292;-71
2022/06/24 00:08:49;;;;;;;1.90;1.80;;;;;;;20.01;55.82;100405.06;5061970;28;20195;-71
2022/06/24 00:11:15;;;;;;;2.83;1.63;;;;;;;19.99;55.22;100401.69;5059492;28;20353;-72
2022/06/24 00:13:43;;;;;;;2.93;2.13;;;;;;;19.97;55.84;100400.94;5062356;28;20253;-71
2022/06/24 00:16:10;;;;;;;1.80;1.70;;;;;;;19.96;55.49;100401.88;5058534;28;20313;-72
2022/06/24 00:18:36;;;;;;;1.80;1.70;;;;;;;19.93;55.81;100405.59;5059084;28;20546;-72
2022/06/24 00:21:11;;;;;;;2.93;1.80;;;;;;;19.93;55.49;100404.72;5065837;28;20191;-72
2022/06/24 00:23:39;;;;;;;1.97;1.77;;;;;;;19.87;55.68;100400.72;5059886;28;20693;-72
2022/06/24 00:26:07;;;;;;;2.70;1.73;;;;;;;19.85;56.33;100407.91;5059378;28;20237;-72
2022/06/24 00:28:34;;;;;;;1.60;1.50;;;;;;;19.78;56.41;100399.53;5060069;28;20703;-72
2022/06/24 00:31:04;;;;;;;1.90;1.70;;;;;;;19.78;56.88;100406.66;5038600;28;20206;-72
2022/06/24 00:33:34;;;;;;;1.90;1.80;;;;;;;19.70;57.40;100404.50;5058557;28;20265;-72
2022/06/24 00:36:02;;;;;;;2.07;1.67;;;;;;;19.75;57.28;100414.78;5062947;28;20615;-72
2022/06/24 00:38:32;;;;;;;2.20;2.00;;;;;;;19.72;57.11;100407.88;5067612;28;20209;-72
2022/06/24 00:41:01;;;;;;;2.20;2.00;;;;;;;19.70;56.82;100404.50;5064800;28;20206;-72
2022/06/24 00:43:33;;;;;;;3.97;1.70;;;;;;;19.66;56.92;100397.69;5065202;28;20214;-71
2022/06/24 00:46:06;;;;;;;2.10;1.70;;;;;;;19.60;57.31;100400.78;5062026;28;20753;-71
2022/06/24 00:48:35;;;;;;;3.10;1.70;;;;;;;19.56;57.39;100401.91;5062874;28;20602;-71
2022/06/24 00:51:03;;;;;;;2.20;1.90;;;;;;;19.52;57.54;100400.44;5060085;28;20690;-72
2022/06/24 00:53:30;;;;;;;2.13;1.70;;;;;;;19.50;57.42;100397.91;5065265;28;20198;-72
2022/06/24 00:55:56;;;;;;;3.87;1.77;;;;;;;19.48;57.53;100398.00;5062041;28;20226;-71
2022/06/24 00:58:24;;;;;;;3.10;2.00;;;;;;;19.42;57.76;100389.66;5066870;28;20210;-72
2022/06/24 01:00:52;;;;;;;2.10;1.90;;;;;;;19.39;58.34;100397.78;5062821;28;20202;-72
2022/06/24 01:03:18;;;;;;;2.13;1.93;;;;;;;19.32;58.53;100399.13;5065415;28;20542;-72
2022/06/24 01:05:45;;;;;;;3.70;2.10;;;;;;;19.29;58.81;100403.69;5068831;28;20245;-72
2022/06/24 01:08:13;;;;;;;3.43;2.13;;;;;;;19.24;59.33;100400.50;5059115;28;20203;-72
2022/06/24 01:10:40;;;;;;;3.13;1.80;;;;;;;19.22;59.25;100401.53;5065035;28;20210;-72
2022/06/24 01:13:09;;;;;;;1.70;1.60;;;;;;;19.17;59.43;100401.84;5066815;28;20655;-72
2022/06/24 01:15:35;;;;;;;1.80;1.70;;;;;;;19.15;59.50;100389.66;5061608;28;20203;-72
2022/06/24 01:18:03;;;;;;;2.27;1.70;;;;;;;19.14;59.48;100399.41;5058656;28;20585;-72
2022/06/24 01:20:30;;;;;;;2.93;2.00;;;;;;;19.09;60.10;100399.69;5066048;28;20201;-71
2022/06/24 01:22:58;;;;;;;3.93;2.50;;;;;;;19.05;59.92;100398.22;5061587;28;20210;-72
2022/06/24 01:25:24;;;;;;;2.63;1.90;;;;;;;18.98;60.68;100391.63;5062288;28;20731;-72
2022/06/24 01:27:50;;;;;;;2.33;1.90;;;;;;;18.94;60.63;100395.41;5065109;28;20214;-72
2022/06/24 01:30:17;;;;;;;2.37;2.10;;;;;;;18.91;61.01;100393.81;5064662;28;20217;-72
2022/06/24 01:32:43;;;;;;;2.33;2.13;;;;;;;18.89;61.21;100400.13;5064477;28;20202;-71
2022/06/24 01:35:10;;;;;;;2.67;2.10;;;;;;;18.82;61.30;100396.19;5065768;28;20209;-72
2022/06/24 01:37:36;;;;;;;2.23;1.97;;;;;;;18.74;62.24;100384.28;5065548;28;20222;-72
2022/06/24 01:40:05;;;;;;;2.03;1.83;;;;;;;18.66;63.08;100386.59;5060497;28;20206;-72
2022/06/24 01:42:31;;;;;;;3.17;2.00;;;;;;;18.64;62.92;100382.34;5062806;28;20212;-72
2022/06/24 01:44:58;;;;;;;2.40;2.00;;;;;;;18.62;62.63;100387.72;5063058;28;20205;-71
2022/06/24 01:47:24;;;;;;;3.00;2.00;;;;;;;18.62;63.08;100376.31;5063868;28;20242;-72
2022/06/24 01:49:50;;;;;;;2.10;1.90;;;;;;;18.58;62.68;100378.31;5066174;28;20210;-72
2022/06/24 01:52:17;;;;;;;4.47;2.17;;;;;;;18.53;63.28;100375.94;5063697;28;20206;-71
2022/06/24 01:54:43;;;;;;;2.03;1.90;;;;;;;18.53;63.40;100369.81;5066893;28;20205;-72
2022/06/24 01:57:11;;;;;;;2.77;2.30;;;;;;;18.49;63.61;100370.97;5066077;28;20230;-71
2022/06/24 01:59:37;;;;;;;2.10;1.90;;;;;;;18.45;64.72;100370.31;5058814;28;20199;-72
2022/06/24 02:02:04;;;;;;;2.70;2.03;;;;;;;18.44;63.84;100378.34;5065501;28;20206;-72
2022/06/24 02:04:30;;;;;;;2.43;2.00;;;;;;;18.40;64.27;100382.97;5057662;28;20711;-72
2022/06/24 02:06:57;;;;;;;2.20;2.00;;;;;;;18.33;66.18;100377.22;5063235;28;20214;-71
2022/06/24 02:09:23;;;;;;;2.50;2.30;;;;;;;18.29;65.82;100380.13;5066398;28;20198;-71
2022/06/24 02:14:35;;;;;;;2.50;2.27;;;;;;;18.17;70.33;100374.69;5066412;28;20746;-71
2022/06/24 02:17:02;;;;;;;2.20;2.00;;;;;;;18.12;67.71;100374.13;5065267;28;20222;-71
2022/06/24 02:19:28;;;;;;;2.10;1.90;;;;;;;18.11;69.20;100377.69;5058522;28;20199;-71
2022/06/24 02:21:55;;;;;;;2.43;2.17;;;;;;;18.08;67.59;100374.38;5064039;28;20206;-71
2022/06/24 02:24:21;;;;;;;2.53;2.20;;;;;;;18.04;67.19;100378.16;5058466;28;20215;-71
2022/06/24 02:26:47;;;;;;;2.50;2.13;;;;;;;18.01;68.06;100376.56;5063802;28;20233;-71
2022/06/24 02:29:14;;;;;;;3.63;2.17;;;;;;;18.00;67.72;100384.59;5062924;28;20623;-71
2022/06/24 02:31:43;;;;;;;2.07;1.87;;;;;;;18.03;67.25;100387.00;5064559;28;20206;-71
2022/06/24 02:34:09;;;;;;;3.17;2.00;;;;;;;18.04;66.83;100384.28;5062374;28;20230;-72
2022/06/24 02:36:36;;;;;;;2.43;2.07;;;;;;;18.04;67.08;100386.06;5064542;28;20614;-71
2022/06/24 02:39:03;;;;;;;2.70;2.17;;;;;;;18.04;66.51;100388.72;5059485;28;20655;-72
2022/06/24 02:41:30;;;;;;;4.00;2.23;;;;;;;18.03;66.28;100385.25;5063572;28;20194;-71
2022/06/24 02:43:56;;;;;;;2.57;2.37;;;;;;;18.05;66.52;100387.78;5063389;28;20211;-71
2022/06/24 02:46:22;;;;;;;2.57;2.17;;;;;;;18.05;66.34;100390.44;5064670;28;20222;-71
2022/06/24 02:48:50;;;;;;;2.33;2.10;;;;;;;18.02;66.85;100385.34;5059950;28;20209;-71
2022/06/24 02:51:16;;;;;;;5.50;2.13;;;;;;;17.95;66.85;100387.47;5058843;28;20209;-71
2022/06/24 02:53:44;;;;;;;5.37;2.13;;;;;;;17.94;67.38;100380.50;5067357;28;20202;-71
2022/06/24 02:56:12;;;;;;;2.30;2.10;;;;;;;17.90;67.39;100390.38;5063176;28;20218;-71
2022/06/24 02:58:39;;;;;;;3.10;2.23;;;;;;;17.84;68.29;100389.91;5063991;28;20651;-71
2022/06/24 03:01:05;;;;;;;4.03;2.10;;;;;;;17.82;67.99;100394.41;5053533;28;20207;-71
2022/06/24 03:03:33;;;;;;;3.43;2.00;;;;;;;17.79;67.94;100390.16;5062659;28;20252;-71
2022/06/24 03:06:00;;;;;;;3.17;2.13;;;;;;;17.81;67.85;100400.63;5064536;28;20218;-71
2022/06/24 03:08:27;;;;;;;2.73;2.20;;;;;;;17.78;68.13;100396.38;5062946;28;20237;-72
2022/06/24 03:10:55;;;;;;;3.80;2.13;;;;;;;17.77;67.85;100392.91;5060839;28;20195;-72
2022/06/24 03:13:21;;;;;;;2.87;2.13;;;;;;;17.78;68.34;100394.59;5052959;28;20369;-72
2022/06/24 03:15:48;;;;;;;5.70;2.40;;;;;;;17.77;69.04;100392.06;5063478;28;20229;-72
2022/06/24 03:18:15;;;;;;;6.73;2.27;;;;;;;17.77;68.67;100395.53;5059818;28;20298;-71
2022/06/24 03:20:42;;;;;;;2.23;1.90;;;;;;;17.78;68.54;100391.09;5058347;28;20683;-71
2022/06/24 03:23:09;;;;;;;2.40;2.20;;;;;;;17.79;70.12;100387.53;5060020;28;20203;-72
2022/06/24 03:25:36;;;;;;;2.30;2.10;;;;;;;17.79;69.81;100383.09;5064995;28;20202;-72
2022/06/24 03:28:04;;;;;;;2.67;2.03;;;;;;;17.81;68.49;100392.72;5062997;28;20202;-72
2022/06/24 03:30:32;;;;;;;3.50;2.17;;;;;;;17.85;68.61;100391.59;5064870;28;20277;-72
2022/06/24 03:32:58;;;;;;;3.73;2.43;;;;;;;17.90;69.09;100384.28;5055779;28;20687;-72
2022/06/24 03:35:25;;;;;;;2.60;2.40;;;;;;;17.93;68.71;100378.81;5056517;28;20201;-72
2022/06/24 03:37:51;;;;;;;2.60;2.03;;;;;;;17.97;68.24;100381.16;5060308;28;20206;-72
2022/06/24 03:40:19;;;;;;;2.43;2.23;;;;;;;18.02;68.08;100383.53;5066508;28;20203;-72
2022/06/24 03:42:45;;;;;;;2.77;2.30;;;;;;;18.10;67.87;100391.84;5062568;28;20199;-72
2022/06/24 03:45:11;;;;;;;2.97;2.50;;;;;;;18.19;67.57;100386.91;5055482;28;20207;-73
2022/06/24 03:47:38;;;;;;;2.80;2.27;;;;;;;18.26;67.39;100382.97;5058831;28;20218;-72
2022/06/24 03:50:05;;;;;;;2.73;2.00;;;;;;;18.33;66.80;100385.13;5062316;28;20203;-73
2022/06/24 03:52:32;;;;;;;4.13;2.57;;;;;;;18.41;66.15;100384.63;5065525;28;20191;-73
2022/06/24 03:54:58;;;;;;;2.30;2.10;;;;;;;18.51;65.88;100392.84;5061285;28;20209;-72
2022/06/24 03:57:26;;;;;;;2.90;2.43;;;;;;;18.59;65.63;100398.50;5062809;28;20598;-72
2022/06/24 03:59:52;;;;;;;5.67;2.10;;;;;;;18.65;65.36;100395.44;5062078;28;20586;-73
2022/06/24 04:02:21;;;;;;;2.97;2.40;;;;;;;18.74;64.48;100394.84;5061946;28;20202;-73
2022/06/24 04:04:47;;;;;;;3.53;2.37;;;;;;;18.87;64.09;100394.97;5057812;28;20214;-72
2022/06/24 04:07:14;;;;;;;3.03;1.90;;;;;;;18.96;64.54;100398.81;5063432;28;20710;-72
2022/06/24 04:09:40;;;;;;;2.50;1.87;;;;;;;19.06;63.67;100396.41;5057419;28;20206;-72
2022/06/24 04:12:07;;;;;;;2.40;2.20;;;;;;;19.13;63.94;100402.97;5056131;28;20201;-72
2022/06/24 04:17:15;;;;;;;3.80;2.30;;;;;;;19.31;62.20;100403.56;5057228;28;20314;-72
2022/06/24 04:19:41;;;;;;;2.53;2.33;;;;;;;19.40;62.49;100410.91;5063026;28;20211;-73
2022/06/24 04:22:08;;;;;;;3.03;2.30;;;;;;;19.47;62.09;100409.53;5059677;28;20204;-72
2022/06/24 04:24:34;;;;;;;3.47;2.50;;;;;;;19.58;61.70;100408.81;5055824;28;20214;-72
2022/06/24 04:27:01;;;;;;;2.50;2.30;;;;;;;19.69;61.11;100408.09;5053711;28;20256;-72
2022/06/24 04:29:27;;;;;;;2.47;2.27;;;;;;;19.75;61.23;100397.13;5062210;28;20209;-71
2022/06/24 04:31:55;;;;;;;3.27;2.30;;;;;;;19.89;61.00;100404.09;5056860;28;20681;-72
2022/06/24 04:34:21;;;;;;;5.47;2.60;;;;;;;20.00;59.99;100403.38;5057802;28;20191;-72
2022/06/24 04:36:48;;;;;;;3.03;2.17;;;;;;;20.07;59.67;100399.34;5059771;28;20218;-72
2022/06/24 04:39:14;;;;;;;2.43;2.23;;;;;;;20.13;58.94;100393.63;5060544;28;20205;-72
2022/06/24 04:41:40;;;;;;;4.77;2.40;;;;;;;20.23;58.56;100396.47;5060679;28;20557;-72
2022/06/24 04:44:07;;;;;;;7.30;2.17;;;;;;;20.34;58.92;100385.97;5059095;28;20237;-72
2022/06/24 04:46:33;;;;;;;3.20;2.17;;;;;;;20.45;58.98;100381.72;5061315;28;20240;-72
2022/06/24 04:49:01;;;;;;;3.63;2.37;;;;;;;20.53;58.37;100388.16;5057840;28;20655;-72
2022/06/24 04:51:28;;;;;;;5.20;2.20;;;;;;;20.61;57.72;100383.19;5056299;28;20568;-72
2022/06/24 04:53:54;;;;;;;2.73;2.30;;;;;;;20.72;59.30;100376.25;5058585;28;20200;-72
2022/06/24 04:56:21;;;;;;;4.23;2.20;;;;;;;20.80;58.94;100384.50;5056660;28;20302;-72
2022/06/24 04:58:47;;;;;;;4.17;2.37;;;;;;;20.84;57.22;100379.81;5055964;28;20203;-73
2022/06/24 05:01:14;;;;;;;2.40;2.20;;;;;;;20.89;57.49;100382.97;5051622;28;20200;-73
2022/06/24 05:03:41;;;;;;;4.03;2.40;;;;;;;20.97;57.74;100380.63;5056901;28;20209;-72
2022/06/24 05:06:08;;;;;;;3.93;2.30;;;;;;;21.06;57.19;100373.81;5058350;28;20608;-73
2022/06/24 05:08:35;;;;;;;3.73;2.10;;;;;;;21.21;56.33;100374.44;5051380;28;20195;-72
2022/06/24 05:11:01;;;;;;;5.63;2.20;;;;;;;21.37;56.12;100380.28;5054419;28;20206;-72
2022/06/24 05:13:27;;;;;;;5.60;2.30;;;;;;;21.45;55.65;100363.81;5054850;28;20574;-72
2022/06/24 05:15:54;;;;;;;3.43;1.90;;;;;;;21.58;55.04;100366.41;5056190;28;20221;-72
2022/06/24 05:18:21;;;;;;;6.17;2.23;;;;;;;21.75;54.53;100364.13;5056945;28;20649;-72
2022/06/24 05:20:47;;;;;;;3.63;2.17;;;;;;;21.82;54.41;100367.16;5056693;28;20234;-72
2022/06/24 05:23:15;;;;;;;5.27;2.30;;;;;;;21.85;54.34;100369.59;5056466;28;20309;-72
2022/06/24 05:25:41;;;;;;;2.77;2.30;;;;;;;21.93;54.96;100355.72;5062931;28;20562;-73
2022/06/24 05:28:08;;;;;;;6.77;2.20;;;;;;;21.94;54.18;100365.38;5058001;28;20679;-72
2022/06/24 05:30:34;;;;;;;5.27;2.47;;;;;;;22.00;55.09;100362.22;5058991;28;20210;-72
2022/06/24 05:33:00;;;;;;;3.17;2.10;;;;;;;22.08;53.32;100361.63;5062240;28;20202;-73
2022/06/24 05:35:27;;;;;;;3.40;2.30;;;;;;;22.16;53.00;100356.56;5061450;28;20195;-72
2022/06/24 05:37:53;;;;;;;3.57;2.27;;;;;;;22.27;52.34;100355.75;5058953;28;20190;-72
2022/06/24 05:40:21;;;;;;;3.17;2.03;;;;;;;22.38;51.95;100360.22;5059661;28;20203;-73
2022/06/24 05:42:48;;;;;;;3.87;2.10;;;;;;;22.42;51.78;100361.63;5054658;28;20208;-72
2022/06/24 05:45:14;;;;;;;2.60;2.40;;;;;;;22.46;51.93;100355.97;5052766;28;20700;-72
2022/06/24 05:47:40;;;;;;;4.77;2.10;;;;;;;22.57;52.32;100357.75;5061447;28;20219;-72
2022/06/24 05:50:09;;;;;;;2.20;2.00;;;;;;;22.66;53.20;100348.19;5053877;28;20202;-72
2022/06/24 05:55:19;;;;;;;3.90;2.40;;;;;;;22.86;52.64;100344.72;5058480;28;20690;-73
2022/06/24 05:57:47;;;;;;;2.83;2.10;;;;;;;22.92;50.30;100346.06;5056683;28;20241;-73
2022/06/24 06:00:14;;;;;;;4.10;2.23;;;;;;;22.99;51.49;100341.94;5058296;28;20913;-72
2022/06/24 06:02:40;;;;;;;2.57;2.37;;;;;;;23.08;51.80;100343.00;5062450;28;20273;-73
2022/06/24 06:05:07;;;;;;;2.30;2.10;;;;;;;23.17;50.67;100344.91;5061101;28;20220;-72
2022/06/24 06:07:34;;;;;;;2.23;2.03;;;;;;;23.27;50.52;100358.28;5056822;28;20222;-72
2022/06/24 06:10:00;;;;;;;2.43;2.20;;;;;;;23.34;51.42;100350.59;5041356;28;20199;-73
2022/06/24 06:12:26;;;;;;;3.43;2.27;;;;;;;23.39;49.54;100351.06;5057547;28;20211;-72
2022/06/24 06:14:54;;;;;;;3.53;2.43;;;;;;;23.48;51.18;100342.28;5064176;28;20568;-72
2022/06/24 06:17:20;;;;;;;3.17;2.20;;;;;;;23.58;48.67;100340.53;5058578;28;20225;-72
2022/06/24 06:19:47;;;;;;;3.23;2.40;;;;;;;23.69;49.63;100333.47;5057596;28;20214;-72
2022/06/24 06:22:13;;;;;;;2.43;2.20;;;;;;;23.77;48.52;100331.81;5060778;28;20209;-73
2022/06/24 06:24:39;;;;;;;2.60;2.40;;;;;;;23.88;48.17;100332.75;5055910;28;20552;-72
2022/06/24 06:27:08;;;;;;;6.10;2.17;;;;;;;24.01;48.96;100330.72;5052806;28;20582;-72
2022/06/24 06:29:34;;;;;;;3.00;2.30;;;;;;;24.17;48.95;100312.41;5057406;28;20460;-72
2022/06/24 06:32:02;;;;;;;2.40;2.20;;;;;;;24.25;47.69;100314.38;5055451;28;20671;-73
2022/06/24 06:34:29;;;;;;;2.50;2.30;;;;;;;24.29;47.96;100313.16;5056579;28;20195;-73
2022/06/24 06:36:55;;;;;;;4.40;2.50;;;;;;;24.35;48.15;100315.25;5056291;28;20226;-72
2022/06/24 06:39:21;;;;;;;5.07;2.60;;;;;;;24.43;48.23;100314.59;5059317;28;20609;-73
2022/06/24 06:41:48;;;;;;;2.65;2.20;;;;;;;24.51;47.90;100324.53;5059118;28;20209;-72
2022/06/24 06:44:15;;;;;;;2.50;2.30;;;;;;;24.49;47.41;100318.50;5054932;28;20199;-72
2022/06/24 06:46:42;;;;;;;5.45;2.17;;;;;;;24.59;48.14;100318.53;5054298;28;20768;-72
2022/06/24 06:49:09;;;;;;;3.80;2.47;;;;;;;24.62;47.35;100319.09;5060924;28;20201;-72
2022/06/24 06:51:36;;;;;;;4.03;2.53;;;;;;;24.63;48.03;100310.13;5056837;28;20214;-73
2022/06/24 06:54:02;;;;;;;4.20;2.53;;;;;;;24.66;47.32;100315.19;5060550;28;20599;-72
2022/06/24 06:56:29;;;;;;;2.83;2.53;;;;;;;24.67;47.63;100313.38;5059476;28;20583;-73
2022/06/24 06:58:55;;;;;;;3.88;2.45;;;;;;;24.79;47.57;100314.09;5055081;28;20210;-72
2022/06/24 07:01:22;;;;;;;3.88;2.25;;;;;;;24.97;47.65;100315.06;5055174;28;20578;-72
2022/06/24 07:03:48;;;;;;;3.15;2.58;;;;;;;25.05;46.60;100309.88;5058941;28;20198;-72
2022/06/24 07:06:16;;;;;;;3.28;2.53;;;;;;;25.10;47.26;100302.28;5052032;28;20219;-72
2022/06/24 07:08:42;;;;;;;4.35;2.50;;;;;;;25.27;46.82;100307.91;5035257;28;20195;-72
2022/06/24 07:11:08;;;;;;;2.60;2.40;;;;;;;25.45;46.75;100305.31;5057947;28;20210;-72
2022/06/24 07:13:35;;;;;;;4.32;2.67;;;;;;;25.49;45.04;100304.91;5051899;28;20221;-72
2022/06/24 07:16:01;;;;;;;5.93;2.58;;;;;;;25.56;47.47;100285.63;5057861;28;20293;-73
2022/06/24 07:18:27;;;;;;;2.60;2.40;;;;;;;25.63;44.51;100289.44;5058334;28;20209;-73
2022/06/24 07:20:54;;;;;;;4.38;2.50;;;;;;;25.79;44.91;100278.97;5059349;28;20210;-72
2022/06/24 07:23:22;;;;;;;2.65;2.22;;;;;;;25.89;44.74;100282.44;5055857;28;20203;-72
2022/06/24 07:25:48;;;;;;;3.55;2.28;;;;;;;26.00;42.87;100280.59;5055190;28;20231;-72
2022/06/24 07:28:14;;;;;;;3.05;2.58;;;;;;;26.07;42.40;100276.31;5059246;28;20199;-72
2022/06/24 07:30:41;;;;;;;4.40;3.42;;;;;;;26.12;43.51;100270.53;5056491;28;20209;-72
2022/06/24 07:33:07;;;;;;;2.33;2.08;;;;;;;26.26;40.88;100272.69;5053973;28;20206;-73
2022/06/24 07:35:33;;;;;;;6.63;2.22;;;;;;;26.33;41.22;100265.75;5055584;28;20690;-72
2022/06/24 07:38:00;;;;;;;4.50;2.20;;;;;;;26.37;42.01;100264.47;5057953;28;20195;-73
2022/06/24 07:40:28;;;;;;;2.78;2.17;;;;;;;26.50;43.50;100256.06;5057104;28;20206;-72
2022/06/24 07:42:55;;;;;;;2.85;2.08;;;;;;;26.67;41.43;100258.94;5055679;28;20209;-72
2022/06/24 07:45:21;;;;;;;5.10;2.13;;;;;;;26.84;42.84;100260.72;5057183;28;20221;-73
2022/06/24 07:47:47;;;;;;;3.20;2.10;;;;;;;26.91;40.46;100259.16;5057719;28;20237;-73
2022/06/24 07:50:14;;;;;;;2.28;2.08;;;;;;;26.98;41.16;100262.88;5052401;28;20443;-72
2022/06/24 07:52:40;;;;;;;3.70;2.13;;;;;;;27.08;39.93;100261.94;5058013;28;20202;-73
2022/06/24 07:57:53;;;;;;;2.67;2.13;;;;;;;27.21;40.47;100265.00;5057326;28;20477;-72
2022/06/24 08:00:19;;;;;;;2.42;2.15;;;;;;;27.33;39.02;100261.09;5060631;28;20195;-73
2022/06/24 08:02:46;;;;;;;2.55;2.10;;;;;;;27.42;40.14;100248.63;5055661;28;20632;-73
2022/06/24 08:05:12;;;;;;;2.55;1.85;;;;;;;27.51;39.66;100238.78;5050342;28;20221;-73
2022/06/24 08:07:39;;;;;;;2.00;1.83;;;;;;;27.60;38.60;100234.31;5060627;28;20226;-72
2022/06/24 08:10:06;;;;;;;4.10;1.92;;;;;;;27.70;38.65;100232.38;5056478;28;20210;-72
2022/06/24 08:12:32;;;;;;;2.97;1.77;;;;;;;27.90;38.14;100227.59;5058225;28;20213;-72
2022/06/24 08:15:00;;;;;;;2.10;1.90;;;;;;;28.01;37.64;100229.16;5054343;28;20242;-72
2022/06/24 08:17:27;;;;;;;2.38;2.10;;;;;;;28.12;39.76;100218.97;5053902;28;20227;-72
2022/06/24 08:19:53;;;;;;;4.88;2.97;;;;;;;28.13;39.62;100217.97;5059733;28;20222;-72
2022/06/24 08:22:20;;;;;;;2.60;2.40;;;;;;;28.08;36.84;100214.94;5059236;28;20249;-71
2022/06/24 08:24:46;;;;;;;2.28;1.70;;;;;;;28.22;36.77;100213.47;5054781;28;20213;-71
2022/06/24 08:27:12;;;;;;;2.00;1.80;;;;;;;28.35;38.64;100210.28;5058944;28;20793;-71
2022/06/24 08:29:39;;;;;;;1.88;1.70;;;;;;;28.43;36.46;100212.16;5053460;28;20190;-72
2022/06/24 08:32:08;;;;;;;1.90;1.80;;;;;;;28.56;36.49;100209.84;5060013;28;20199;-71
2022/06/24 08:34:34;;;;;;;2.15;1.95;;;;;;;28.60;36.39;100213.88;5057683;28;20202;-71
2022/06/24 08:37:00;;;;;;;2.72;2.40;;;;;;;28.60;36.72;100205.84;5053818;28;20219;-72
2022/06/24 08:39:27;;;;;;;2.00;1.80;;;;;;;28.80;35.99;100200.97;5055498;28;20204;-71
2022/06/24 08:41:57;;;;;;;1.77;1.52;;;;;;;28.88;35.38;100198.28;5057834;28;20207;-71
2022/06/24 08:44:23;;;;;;;2.10;1.60;;;;;;;28.89;34.47;100191.06;5055661;28;20191;-71
2022/06/24 08:46:51;;;;;;;2.10;1.70;;;;;;;28.96;36.88;100189.38;5054369;28;20234;-71
2022/06/24 08:49:19;;;;;;;2.33;1.70;;;;;;;28.99;34.74;100182.84;5055683;28;20206;-72
2022/06/24 08:51:47;;;;;;;1.60;1.50;;;;;;;29.01;32.74;100180.81;5055316;28;20211;-71
2022/06/24 08:54:17;;;;;;;1.90;1.70;;;;;;;29.05;33.15;100171.41;5055531;28;20259;-71
2022/06/24 08:56:43;;;;;;;5.57;3.63;;;;;;;29.10;34.18;100169.03;5055909;28;20221;-72
2022/06/24 08:59:10;;;;;;;2.38;1.42;;;;;;;29.26;32.83;100181.59;5057272;28;20473;-72
2022/06/24 09:01:39;;;;;;;2.03;1.60;;;;;;;29.40;33.21;100175.50;5058621;28;20206;-72
2022/06/24 09:04:06;;;;;;;5.45;2.80;;;;;;;29.34;33.22;100168.16;5062884;28;20280;-72
2022/06/24 09:06:38;;;;;;;3.00;1.70;;;;;;;29.29;33.79;100153.56;5055646;28;20226;-72
2022/06/24 09:09:05;;;;;;;3.00;1.50;;;;;;;29.53;32.09;100156.16;5057956;28;20210;-72
2022/06/24 09:11:37;;;;;;;2.17;1.98;;;;;;;29.62;33.32;100157.81;5062153;28;20207;-71
2022/06/24 09:14:03;;;;;;;3.08;1.92;;;;;;;29.69;32.07;100157.94;5061142;28;20611;-72
2022/06/24 09:16:29;;;;;;;2.00;1.50;;;;;;;29.77;32.01;100157.91;5058433;28;20297;-72
2022/06/24 09:18:59;;;;;;;2.30;1.80;;;;;;;29.81;32.74;100158.38;5058027;28;20202;-72
2022/06/24 09:21:28;;;;;;;1.60;1.50;;;;;;;29.81;31.22;100150.34;5057614;28;20768;-72
2022/06/24 09:23:59;;;;;;;3.42;1.55;;;;;;;29.81;32.66;100144.97;5064914;28;20190;-72
2022/06/24 09:26:33;;;;;;;2.10;1.83;;;;;;;29.86;31.26;100147.13;5058869;28;20757;-72
2022/06/24 09:29:01;;;;;;;1.80;1.52;;;;;;;29.86;31.05;100141.75;5059130;28;20202;-72
2022/06/24 09:31:31;;;;;;;1.73;1.45;;;;;;;29.99;30.42;100140.16;5062800;28;20204;-72
2022/06/24 09:34:06;;;;;;;2.88;1.60;;;;;;;30.05;31.36;100143.16;5063520;28;20248;-72
2022/06/24 09:36:35;;;;;;;2.90;1.60;;;;;;;30.11;30.84;100134.34;5059676;28;20221;-71
2022/06/24 09:39:05;;;;;;;1.77;1.67;;;;;;;30.01;30.28;100140.81;5062003;28;20561;-71
2022/06/24 09:41:43;;;;;;;2.17;1.70;;;;;;;30.01;32.22;100132.75;5060286;28;20204;-71
2022/06/24 09:44:10;;;;;;;3.83;1.80;;;;;;;29.98;31.15;100138.47;5056822;28;20199;-71
2022/06/24 09:46:36;;;;;;;1.92;1.55;;;;;;;29.99;31.96;100134.78;5060690;28;20307;-72
2022/06/24 09:49:05;;;;;;;2.05;1.75;;;;;;;29.96;32.38;100127.06;5059409;28;20680;-72
2022/06/24 09:51:31;;;;;;;2.85;1.77;;;;;;;30.08;33.21;100119.44;5058319;28;20198;-72
2022/06/24 09:53:58;;;;;;;6.63;1.90;;;;;;;30.21;31.54;100124.19;5060466;28;20221;-71
2022/06/24 09:56:27;;;;;;;1.92;1.55;;;;;;;30.37;31.81;100110.63;5059597;28;20214;-72
2022/06/24 10:01:42;;;;;;;1.70;1.60;;;;;;;30.56;30.35;100127.28;5062815;28;20570;-71
2022/06/24 10:04:12;;;;;;;1.85;1.63;;;;;;;30.64;30.64;100123.66;5059317;28;20745;-72
2022/06/24 10:06:39;;;;;;;3.20;1.45;;;;;;;30.66;31.08;100119.78;5059038;28;20582;-71
2022/06/24 10:09:07;;;;;;;3.58;1.70;;;;;;;30.79;31.61;100118.31;5059241;28;20703;-72
2022/06/24 10:11:39;;;;;;;5.15;1.50;;;;;;;30.94;30.46;100109.28;5058240;28;20210;-72
2022/06/24 10:14:06;;;;;;;1.77;1.65;;;;;;;30.89;31.37;100103.56;5058911;28;20591;-71
2022/06/24 10:16:33;;;;;;;2.78;2.15;;;;;;;30.77;30.83;100107.75;5058696;28;20223;-72
2022/06/24 10:19:02;;;;;;;2.10;1.50;;;;;;;30.81;31.28;100092.06;5055823;28;20207;-72
2022/06/24 10:21:29;;;;;;;1.80;1.55;;;;;;;30.92;30.96;100099.66;5059154;28;20203;-72
2022/06/24 10:23:56;;;;;;;3.38;1.77;;;;;;;31.04;30.53;100100.91;5055727;28;20667;-71
2022/06/24 10:26:25;;;;;;;2.13;1.60;;;;;;;30.80;30.09;100101.16;5061282;28;20568;-72
2022/06/24 10:29:28;;;;;;;2.03;1.70;;;;;;;30.25;29.99;100097.78;5062875;28;20215;-72
2022/06/24 10:32:05;;;;;;;2.25;1.27;;;;;;;30.13;30.47;100106.28;5055814;28;20218;-71
2022/06/24 10:34:42;;;;;;;3.70;1.80;;;;;;;30.33;29.87;100095.03;5058385;28;20209;-71
2022/06/24 10:37:27;;;;;;;5.57;1.73;;;;;;;30.47;30.07;100088.88;5057348;28;20209;-72
2022/06/24 10:39:55;;;;;;;3.70;1.70;;;;;;;30.61;30.43;100087.22;5063234;28;20207;-71
2022/06/24 10:42:24;;;;;;;1.90;1.48;;;;;;;30.75;30.26;100081.03;5061801;28;20202;-71
2022/06/24 10:44:54;;;;;;;2.35;1.65;;;;;;;30.79;31.46;100075.28;5060404;28;20213;-71
2022/06/24 10:47:27;;;;;;;2.08;1.58;;;;;;;30.69;29.74;100078.22;5061446;28;20257;-72
2022/06/24 10:50:13;;;;;;;2.80;1.77;;;;;;;30.75;29.31;100075.63;5059222;28;20806;-72
2022/06/24 10:52:45;;;;;;;4.45;1.85;;;;;;;30.97;30.42;100062.28;5055673;28;20198;-72
2022/06/24 10:55:34;;;;;;;4.55;1.70;;;;;;;31.23;31.35;100066.34;5060278;28;20194;-71
2022/06/24 10:58:03;;;;;;;2.63;1.70;;;;;;;31.45;30.52;100060.00;5056681;28;20285;-72
2022/06/24 11:00:43;;;;;;;1.63;1.52;;;;;;;31.59;30.19;100049.38;5056225;28;20200;-72
2022/06/24 11:03:17;;;;;;;2.35;1.50;;;;;;;31.67;28.54;100062.72;5057147;28;20210;-72
2022/06/24 11:05:45;;;;;;;2.88;1.80;;;;;;;31.48;31.12;100048.81;5058167;28;20587;-73
2022/06/24 11:08:14;;;;;;;1.70;1.60;;;;;;;31.40;29.73;100050.78;5052953;28;20216;-72
2022/06/24 11:10:41;;;;;;;1.60;1.50;;;;;;;31.46;29.52;100041.97;5060918;28;20203;-72
2022/06/24 11:13:10;;;;;;;1.65;1.55;;;;;;;31.59;30.68;100031.38;5057215;28;20222;-72
2022/06/24 11:15:38;;;;;;;1.70;1.60;;;;;;;31.84;30.94;100039.91;5058282;28;20222;-72
2022/06/24 11:18:08;;;;;;;2.53;1.45;;;;;;;31.87;30.31;100028.75;5059089;28;20212;-72
2022/06/24 11:20:40;;;;;;;1.67;1.58;;;;;;;32.15;31.23;100024.41;5058656;28;20822;-72
2022/06/24 11:23:08;;;;;;;4.20;1.73;;;;;;;32.32;30.41;100024.97;5059403;28;20599;-72
2022/06/24 11:25:36;;;;;;;3.55;1.58;;;;;;;32.16;28.82;100016.13;5054159;28;20323;-72
2022/06/24 11:28:02;;;;;;;2.08;1.75;;;;;;;32.03;28.47;100022.22;5058576;28;20644;-72
2022/06/24 11:30:29;;;;;;;2.40;1.60;;;;;;;32.15;30.54;100019.84;5056414;28;20194;-72
2022/06/24 11:32:57;;;;;;;2.97;1.83;;;;;;;32.32;30.00;100017.69;5056538;28;20199;-72
2022/06/24 11:35:24;;;;;;;1.83;1.70;;;;;;;32.43;30.15;100002.81;5053897;28;20203;-71
2022/06/24 11:37:56;;;;;;;2.65;1.58;;;;;;;32.68;29.86;100010.47;5057266;28;20207;-72
2022/06/24 11:40:24;;;;;;;2.40;1.80;;;;;;;32.85;29.07;100006.41;5059783;28;20198;-72